| time (UTC) | temp F | wind direction | speed MPH | gust MPH | rain 1hr in | rain 24hr in | rain mn in | humidity % | barometer mb |
| 20260508035729 | 50 | 225 | 3.0 | 6.0 | 0.00 | 0.00 | 0.00 | 82 | 1022.0 |
| 20260508035226 | 50 | 236 | 5.0 | 6.0 | 0.00 | 0.00 | 0.00 | 82 | 1022.0 |
| 20260508034723 | 0 | 0.0 | 0.0 | 0.00 | 0.00 | 0.00 | 1022.0 | ||
| 20260508034220 | 50 | 196 | 4.0 | 6.0 | 0.00 | 0.00 | 0.00 | 82 | 1022.2 |
| 20260508033717 | 50 | 196 | 4.0 | 6.0 | 0.00 | 0.00 | 0.00 | 82 | 1022.3 |
| 20260508033215 | 50 | 196 | 4.0 | 6.0 | 0.00 | 0.00 | 0.00 | 82 | 1022.3 |
| 20260508032712 | 0 | 0.0 | 0.0 | 0.00 | 0.00 | 0.00 | 1022.2 | ||
| 20260508032209 | 0 | 0.0 | 0.0 | 0.00 | 0.00 | 0.00 | 1022.0 | ||
| 20260508031706 | 50 | 176 | 3.0 | 3.0 | 0.00 | 0.00 | 0.00 | 80 | 1022.3 |
| 20260508031202 | 50 | 176 | 3.0 | 3.0 | 0.00 | 0.00 | 0.00 | 80 | 1022.1 |
| 20260508030659 | 50 | 176 | 3.0 | 3.0 | 0.00 | 0.00 | 0.00 | 80 | 1022.0 |
| 20260508030157 | 0 | 0.0 | 0.0 | 0.00 | 0.00 | 0.00 | 1021.9 | ||
| 20260508025653 | 0 | 0.0 | 0.0 | 0.00 | 0.00 | 0.00 | 1021.9 | ||
| 20260508025150 | 0 | 0.0 | 0.0 | 0.00 | 0.00 | 0.00 | 1021.9 | ||
| 20260508024645 | 51 | 234 | 7.0 | 9.0 | 0.00 | 0.00 | 0.00 | 78 | 1022.3 |
| 20260508024143 | 51 | 234 | 7.0 | 9.0 | 0.00 | 0.00 | 0.00 | 78 | 1022.2 |
| 20260508023639 | 51 | 234 | 7.0 | 9.0 | 0.00 | 0.00 | 0.00 | 78 | 1022.3 |
| 20260508023137 | 51 | 218 | 2.0 | 3.0 | 0.00 | 0.00 | 0.00 | 77 | 1022.4 |
| 20260508022632 | 0 | 0.0 | 0.0 | 0.00 | 0.00 | 0.00 | 1022.4 | ||
| 20260508022130 | 0 | 0.0 | 0.0 | 0.00 | 0.00 | 0.00 | 1022.5 | ||
| 20260508021626 | 0 | 0.0 | 0.0 | 0.00 | 0.00 | 0.00 | 1022.5 | ||
| 20260508021121 | 0 | 0.0 | 0.0 | 0.00 | 0.00 | 0.00 | 1022.5 | ||
| 20260508020620 | 0 | 0.0 | 0.0 | 0.00 | 0.00 | 0.00 | 1022.5 | ||
| 20260508020117 | 0 | 0.0 | 0.0 | 0.00 | 0.00 | 0.00 | 1022.7 | ||
| 20260508015614 | 0 | 0.0 | 0.0 | 0.00 | 0.00 | 0.00 | 1022.6 | ||
| 20260508015111 | 0 | 0.0 | 0.0 | 0.00 | 0.00 | 0.00 | 1022.9 | ||
| 20260508014607 | 0 | 0.0 | 0.0 | 0.00 | 0.00 | 0.00 | 1022.7 | ||
| 20260508014104 | 0 | 0.0 | 0.0 | 0.00 | 0.00 | 0.00 | 1022.9 | ||
| 20260508013600 | 0 | 0.0 | 0.0 | 0.00 | 0.00 | 0.00 | 1022.9 | ||
| 20260508013057 | 0 | 0.0 | 0.0 | 0.00 | 0.00 | 0.00 | 1023.0 | ||
| 20260508012554 | 52 | 196 | 3.0 | 5.0 | 0.00 | 0.00 | 0.00 | 74 | 1023.0 |
| 20260508012051 | 52 | 196 | 3.0 | 5.0 | 0.00 | 0.00 | 0.00 | 74 | 1023.0 |
| 20260508011550 | 0 | 0.0 | 0.0 | 0.00 | 0.00 | 0.00 | 1022.9 | ||
| 20260508011047 | 0 | 0.0 | 0.0 | 0.00 | 0.00 | 0.00 | 1023.2 | ||
| 20260508010543 | 49 | 224 | 2.0 | 2.0 | 0.00 | 0.00 | 0.00 | 81 | 1023.5 |
| 20260508010041 | 49 | 224 | 2.0 | 2.0 | 0.00 | 0.00 | 0.00 | 81 | 1023.2 |
| 20260508005537 | 49 | 224 | 2.0 | 2.0 | 0.00 | 0.00 | 0.00 | 81 | 1023.6 |
| 20260508005034 | 49 | 214 | 2.0 | 3.0 | 0.00 | 0.00 | 0.00 | 81 | 1023.5 |
| 20260508004530 | 0 | 0.0 | 0.0 | 0.00 | 0.00 | 0.00 | 1023.7 | ||
| 20260508004027 | 46 | 251 | 5.0 | 7.0 | 0.00 | 0.00 | 0.00 | 86 | 1023.6 |
| 20260508003523 | 46 | 251 | 5.0 | 7.0 | 0.00 | 0.00 | 0.00 | 86 | 1023.9 |
| 20260508003021 | 46 | 251 | 5.0 | 7.0 | 0.00 | 0.00 | 0.00 | 86 | 1023.8 |
| 20260508002517 | 47 | 217 | 5.0 | 6.0 | 0.00 | 0.00 | 0.00 | 85 | 1023.7 |
| 20260508002015 | 47 | 217 | 5.0 | 6.0 | 0.00 | 0.00 | 0.00 | 85 | 1023.9 |
| 20260508001510 | 47 | 223 | 5.0 | 7.0 | 0.00 | 0.00 | 0.00 | 84 | 1023.8 |
| 20260508001007 | 47 | 248 | 2.0 | 2.0 | 0.00 | 0.00 | 0.00 | 83 | 1024.0 |
| 20260508000503 | 47 | 156 | 4.0 | 6.0 | 0.00 | 0.00 | 0.00 | 83 | 1023.6 |
| 20260508000000 | 47 | 188 | 1.0 | 2.0 | 0.00 | 0.00 | 0.00 | 84 | 1023.9 |
| 20260507235456 | 47 | 188 | 1.0 | 2.0 | 0.00 | 0.00 | 0.00 | 84 | 1023.6 |
| 20260507234954 | 45 | 190 | 2.0 | 3.0 | 0.00 | 0.00 | 0.00 | 85 | 1023.6 |
| 20260507234450 | 45 | 177 | 2.0 | 2.0 | 0.00 | 0.00 | 0.00 | 85 | 1023.7 |
| 20260507233947 | 45 | 219 | 7.0 | 8.0 | 0.00 | 0.00 | 0.00 | 85 | 1024.1 |
| 20260507233443 | 45 | 219 | 7.0 | 8.0 | 0.00 | 0.00 | 0.00 | 85 | 1023.9 |
| 20260507232942 | 45 | 219 | 7.0 | 8.0 | 0.00 | 0.00 | 0.00 | 85 | 1024.1 |
| 20260507232433 | 45 | 241 | 4.0 | 6.0 | 0.00 | 0.00 | 0.00 | 85 | 1024.0 |
| 20260507231930 | 45 | 191 | 2.0 | 3.0 | 0.00 | 0.00 | 0.00 | 85 | 1023.7 |
| 20260507231426 | 45 | 208 | 3.0 | 3.0 | 0.00 | 0.00 | 0.00 | 85 | 1023.9 |
| 20260507230923 | 45 | 226 | 2.0 | 2.0 | 0.00 | 0.00 | 0.00 | 86 | 1023.8 |
| 20260507230421 | 45 | 193 | 3.0 | 3.0 | 0.00 | 0.00 | 0.00 | 87 | 1023.6 |
| 20260507225920 | 44 | 245 | 1.0 | 1.0 | 0.00 | 0.00 | 0.00 | 87 | 1023.6 |
| 20260507225416 | 44 | 211 | 3.0 | 3.0 | 0.00 | 0.00 | 0.00 | 88 | 1023.6 |
| 20260507224913 | 44 | 183 | 0.0 | 1.0 | 0.00 | 0.00 | 0.00 | 88 | 1023.7 |
| 20260507224409 | 44 | 226 | 1.0 | 1.0 | 0.00 | 0.00 | 0.00 | 87 | 1023.6 |
| 20260507223906 | 44 | 223 | 2.0 | 2.0 | 0.00 | 0.00 | 0.00 | 87 | 1023.7 |
| 20260507223402 | 44 | 213 | 2.0 | 2.0 | 0.00 | 0.00 | 0.00 | 86 | 1023.4 |
| 20260507222859 | 44 | 233 | 1.0 | 1.0 | 0.00 | 0.00 | 0.00 | 86 | 1023.4 |
| 20260507222349 | 44 | 252 | 2.0 | 3.0 | 0.00 | 0.00 | 0.00 | 85 | 1023.5 |
| 20260507221846 | 44 | 252 | 2.0 | 3.0 | 0.00 | 0.00 | 0.00 | 85 | 1023.4 |
| 20260507221343 | 43 | 224 | 4.0 | 5.0 | 0.00 | 0.00 | 0.00 | 85 | 1023.2 |
| 20260507220839 | 43 | 240 | 2.0 | 2.0 | 0.00 | 0.00 | 0.00 | 87 | 1023.1 |
| 20260507220338 | 43 | 240 | 2.0 | 2.0 | 0.00 | 0.00 | 0.00 | 87 | 1023.4 |
| 20260507215833 | 43 | 202 | 3.0 | 3.0 | 0.00 | 0.00 | 0.00 | 87 | 1023.2 |
| 20260507215330 | 42 | 242 | 0.0 | 1.0 | 0.00 | 0.00 | 0.00 | 88 | 1023.1 |
| 20260507214827 | 42 | 233 | 2.0 | 2.0 | 0.00 | 0.00 | 0.00 | 88 | 1023.1 |
| 20260507214325 | 42 | 200 | 3.0 | 3.0 | 0.00 | 0.00 | 0.00 | 88 | 1023.1 |
| 20260507213820 | 42 | 200 | 3.0 | 3.0 | 0.00 | 0.00 | 0.00 | 88 | 1023.2 |
| 20260507213317 | 42 | 243 | 1.0 | 2.0 | 0.00 | 0.00 | 0.00 | 88 | 1023.2 |
| 20260507212814 | 42 | 262 | 3.0 | 5.0 | 0.00 | 0.00 | 0.00 | 87 | 1022.8 |
| 20260507212310 | 42 | 206 | 3.0 | 3.0 | 0.00 | 0.00 | 0.00 | 87 | 1023.1 |
| 20260507211806 | 42 | 247 | 2.0 | 3.0 | 0.00 | 0.00 | 0.00 | 87 | 1022.9 |
| 20260507211303 | 41 | 240 | 3.0 | 5.0 | 0.00 | 0.00 | 0.00 | 88 | 1022.9 |
| 20260507210800 | 41 | 196 | 3.0 | 3.0 | 0.00 | 0.00 | 0.00 | 87 | 1022.9 |
| 20260507210257 | 41 | 216 | 3.0 | 3.0 | 0.00 | 0.00 | 0.00 | 88 | 1022.9 |
| 20260507205753 | 41 | 224 | 1.0 | 1.0 | 0.00 | 0.00 | 0.00 | 87 | 1022.6 |
| 20260507205251 | 41 | 219 | 3.0 | 5.0 | 0.00 | 0.00 | 0.00 | 87 | 1022.8 |
| 20260507204747 | 41 | 164 | 4.0 | 6.0 | 0.00 | 0.00 | 0.00 | 88 | 1022.6 |
| 20260507204245 | 41 | 216 | 2.0 | 2.0 | 0.00 | 0.00 | 0.00 | 88 | 1022.6 |
| 20260507203742 | 41 | 216 | 2.0 | 2.0 | 0.00 | 0.00 | 0.00 | 88 | 1022.7 |
| 20260507203239 | 41 | 241 | 2.0 | 2.0 | 0.00 | 0.00 | 0.00 | 88 | 1022.3 |
| 20260507202735 | 41 | 217 | 3.0 | 5.0 | 0.00 | 0.00 | 0.00 | 88 | 1022.6 |
| 20260507202232 | 41 | 222 | 5.0 | 6.0 | 0.00 | 0.00 | 0.00 | 88 | 1022.5 |
| 20260507201726 | 41 | 217 | 3.0 | 5.0 | 0.00 | 0.00 | 0.00 | 88 | 1022.4 |
| 20260507201224 | 41 | 236 | 4.0 | 5.0 | 0.00 | 0.00 | 0.00 | 88 | 1022.5 |
| 20260507200720 | 41 | 243 | 2.0 | 3.0 | 0.00 | 0.00 | 0.00 | 88 | 1022.5 |
| 20260507200216 | 41 | 198 | 3.0 | 3.0 | 0.00 | 0.00 | 0.00 | 88 | 1022.4 |
| 20260507195712 | 41 | 211 | 3.0 | 5.0 | 0.00 | 0.00 | 0.00 | 89 | 1022.5 |
| 20260507195210 | 41 | 244 | 4.0 | 6.0 | 0.00 | 0.00 | 0.00 | 88 | 1022.3 |
| 20260507194707 | 41 | 205 | 2.0 | 2.0 | 0.00 | 0.00 | 0.00 | 89 | 1022.6 |
| 20260507194203 | 41 | 220 | 3.0 | 5.0 | 0.00 | 0.00 | 0.00 | 89 | 1022.4 |
| 20260507193700 | 41 | 237 | 1.0 | 2.0 | 0.00 | 0.00 | 0.00 | 89 | 1022.4 |
| 20260507193157 | 41 | 187 | 4.0 | 5.0 | 0.00 | 0.00 | 0.00 | 89 | 1022.3 |
| 20260507192652 | 41 | 266 | 3.0 | 5.0 | 0.00 | 0.00 | 0.00 | 89 | 1022.4 |
| 20260507192150 | 41 | 210 | 2.0 | 2.0 | 0.00 | 0.00 | 0.00 | 89 | 1022.2 |
| 20260507191645 | 41 | 172 | 4.0 | 5.0 | 0.00 | 0.00 | 0.00 | 89 | 1022.4 |
| 20260507191142 | 41 | 198 | 3.0 | 3.0 | 0.00 | 0.00 | 0.00 | 89 | 1022.2 |
| 20260507190639 | 41 | 239 | 0.0 | 0.0 | 0.00 | 0.00 | 0.00 | 89 | 1022.0 |
| 20260507190138 | 41 | 239 | 0.0 | 1.0 | 0.00 | 0.00 | 0.00 | 89 | 1022.1 |
| 20260507185636 | 41 | 207 | 1.0 | 1.0 | 0.00 | 0.00 | 0.00 | 89 | 1022.3 |
| 20260507185132 | 41 | 234 | 2.0 | 2.0 | 0.00 | 0.00 | 0.00 | 89 | 1022.4 |
| 20260507184630 | 41 | 245 | 2.0 | 3.0 | 0.00 | 0.00 | 0.00 | 90 | 1022.1 |
| 20260507184128 | 41 | 251 | 1.0 | 2.0 | 0.00 | 0.00 | 0.00 | 90 | 1022.2 |
| 20260507183624 | 41 | 201 | 3.0 | 3.0 | 0.00 | 0.00 | 0.00 | 91 | 1022.1 |
| 20260507183121 | 40 | 182 | 1.0 | 2.0 | 0.00 | 0.00 | 0.00 | 91 | 1022.1 |
| 20260507182618 | 40 | 239 | 0.0 | 0.0 | 0.00 | 0.00 | 0.00 | 92 | 1022.1 |
| 20260507182114 | 39 | 251 | 0.0 | 0.0 | 0.00 | 0.00 | 0.00 | 92 | 1021.9 |
| 20260507181610 | 39 | 225 | 0.0 | 0.0 | 0.00 | 0.00 | 0.00 | 93 | 1021.8 |
| 20260507181107 | 39 | 232 | 1.0 | 1.0 | 0.00 | 0.00 | 0.00 | 93 | 1021.9 |
| 20260507180603 | 39 | 242 | 0.0 | 0.0 | 0.00 | 0.00 | 0.00 | 93 | 1021.6 |
| 20260507180101 | 39 | 234 | 0.0 | 1.0 | 0.00 | 0.00 | 0.00 | 93 | 1021.6 |
| 20260507175556 | 38 | 246 | 0.0 | 0.0 | 0.00 | 0.00 | 0.00 | 93 | 1021.8 |
| 20260507175054 | 38 | 246 | 0.0 | 0.0 | 0.00 | 0.00 | 0.00 | 93 | 1021.6 |
| 20260507174551 | 37 | 241 | 0.0 | 0.0 | 0.00 | 0.00 | 0.00 | 93 | 1022.0 |
| 20260507174049 | 37 | 337 | 3.0 | 3.0 | 0.00 | 0.00 | 0.00 | 94 | 1022.1 |
| 20260507173545 | 37 | 261 | 1.0 | 1.0 | 0.00 | 0.00 | 0.00 | 94 | 1022.1 |
| 20260507173043 | 37 | 261 | 1.0 | 1.0 | 0.00 | 0.00 | 0.00 | 94 | 1022.1 |
| 20260507172538 | 0 | 0.0 | 0.0 | 0.00 | 0.00 | 0.00 | 1022.2 | ||
| 20260507172036 | 0 | 0.0 | 0.0 | 0.00 | 0.00 | 0.00 | 1022.1 | ||
| 20260507171531 | 0 | 0.0 | 0.0 | 0.00 | 0.00 | 0.00 | 1022.1 | ||
| 20260507171028 | 0 | 0.0 | 0.0 | 0.00 | 0.00 | 0.00 | 1022.2 | ||
| 20260507170525 | 0 | 0.0 | 0.0 | 0.00 | 0.00 | 0.00 | 1022.1 | ||
| 20260507170022 | 0 | 0.0 | 0.0 | 0.00 | 0.00 | 0.00 | 1022.3 | ||
| 20260507165518 | 0 | 0.0 | 0.0 | 0.00 | 0.00 | 0.00 | 1022.2 | ||
| 20260507165014 | 0 | 0.0 | 0.0 | 0.00 | 0.00 | 0.00 | 1022.4 | ||
| 20260507164511 | 0 | 0.0 | 0.0 | 0.00 | 0.00 | 0.00 | 1022.2 | ||
| 20260507164008 | 36 | 239 | 0.0 | 0.0 | 0.00 | 0.00 | 0.00 | 92 | 1022.2 |
| 20260507163505 | 36 | 239 | 0.0 | 0.0 | 0.00 | 0.00 | 0.00 | 92 | 1022.1 |
| 20260507163003 | 0 | 0.0 | 0.0 | 0.00 | 0.00 | 0.00 | 1022.3 | ||
| 20260507162457 | 0 | 0.0 | 0.0 | 0.00 | 0.00 | 0.00 | 1022.3 | ||
| 20260507161954 | 0 | 0.0 | 0.0 | 0.00 | 0.00 | 0.00 | 1022.0 | ||
| 20260507161451 | 37 | 250 | 0.0 | 0.0 | 0.00 | 0.00 | 0.00 | 90 | 1022.2 |
| 20260507160948 | 37 | 250 | 0.0 | 0.0 | 0.00 | 0.00 | 0.00 | 90 | 1022.1 |
| 20260507160444 | 0 | 0.0 | 0.0 | 0.00 | 0.00 | 0.00 | 1022.3 | ||
| 20260507155939 | 0 | 0.0 | 0.0 | 0.00 | 0.00 | 0.00 | 1022.4 | ||
| 20260507155436 | 0 | 0.0 | 0.0 | 0.00 | 0.00 | 0.00 | 1022.4 | ||
| 20260507154933 | 0 | 0.0 | 0.0 | 0.00 | 0.00 | 0.00 | 1022.2 | ||
| 20260507154429 | 0 | 0.0 | 0.0 | 0.00 | 0.00 | 0.00 | 1022.3 | ||
| 20260507153927 | 0 | 0.0 | 0.0 | 0.00 | 0.00 | 0.00 | 1022.4 | ||
| 20260507153423 | 0 | 0.0 | 0.0 | 0.00 | 0.00 | 0.00 | 1022.3 | ||
| 20260507152919 | 36 | 242 | 0.0 | 1.0 | 0.00 | 0.00 | 0.00 | 90 | 1022.6 |
| 20260507152416 | 36 | 242 | 0.0 | 1.0 | 0.00 | 0.00 | 0.00 | 90 | 1022.7 |
| 20260507151912 | 36 | 237 | 0.0 | 0.0 | 0.00 | 0.00 | 0.00 | 89 | 1022.6 |
| 20260507151409 | 36 | 237 | 0.0 | 0.0 | 0.00 | 0.00 | 0.00 | 89 | 1022.6 |
| 20260507150906 | 0 | 0.0 | 0.0 | 0.00 | 0.00 | 0.00 | 1022.6 | ||
| 20260507150402 | 0 | 0.0 | 0.0 | 0.00 | 0.00 | 0.00 | 1022.5 | ||
| 20260507145858 | 0 | 0.0 | 0.0 | 0.00 | 0.00 | 0.00 | 1022.4 | ||
| 20260507145354 | 0 | 0.0 | 0.0 | 0.00 | 0.00 | 0.00 | 1022.6 | ||
| 20260507144852 | 0 | 0.0 | 0.0 | 0.00 | 0.00 | 0.00 | 1022.6 | ||
| 20260507144349 | 0 | 0.0 | 0.0 | 0.00 | 0.00 | 0.00 | 1022.7 | ||
| 20260507143846 | 0 | 0.0 | 0.0 | 0.00 | 0.00 | 0.00 | 1022.7 | ||
| 20260507143343 | 0 | 0.0 | 0.0 | 0.00 | 0.00 | 0.00 | 1022.5 | ||
| 20260507142839 | 0 | 0.0 | 0.0 | 0.00 | 0.00 | 0.00 | 1022.5 | ||
| 20260507142336 | 0 | 0.0 | 0.0 | 0.00 | 0.00 | 0.00 | 1022.7 | ||
| 20260507141832 | 0 | 0.0 | 0.0 | 0.00 | 0.00 | 0.00 | 1022.6 | ||
| 20260507141329 | 0 | 0.0 | 0.0 | 0.00 | 0.00 | 0.00 | 1022.6 | ||
| 20260507140825 | 0 | 0.0 | 0.0 | 0.00 | 0.00 | 0.00 | 1022.8 | ||
| 20260507140322 | 38 | 239 | 0.0 | 0.0 | 0.00 | 0.00 | 0.00 | 85 | 1022.8 |
| 20260507135820 | 38 | 239 | 0.0 | 0.0 | 0.00 | 0.00 | 0.00 | 85 | 1022.9 |
| 20260507135317 | 38 | 239 | 0.0 | 0.0 | 0.00 | 0.00 | 0.00 | 85 | 1022.8 |
| 20260507134814 | 37 | 230 | 0.0 | 1.0 | 0.00 | 0.00 | 0.00 | 85 | 1022.9 |
| 20260507134310 | 37 | 230 | 0.0 | 1.0 | 0.00 | 0.00 | 0.00 | 85 | 1022.6 |
| 20260507133806 | 37 | 230 | 0.0 | 1.0 | 0.00 | 0.00 | 0.00 | 85 | 1022.7 |
| 20260507133302 | 0 | 0.0 | 0.0 | 0.00 | 0.00 | 0.00 | 1022.8 | ||
| 20260507132800 | 0 | 0.0 | 0.0 | 0.00 | 0.00 | 0.00 | 1022.7 | ||
| 20260507132256 | 0 | 0.0 | 0.0 | 0.00 | 0.00 | 0.00 | 1022.7 | ||
| 20260507131753 | 0 | 0.0 | 0.0 | 0.00 | 0.00 | 0.00 | 1022.8 | ||
| 20260507131251 | 0 | 0.0 | 0.0 | 0.00 | 0.00 | 0.00 | 1022.7 | ||
| 20260507130747 | 0 | 0.0 | 0.0 | 0.00 | 0.00 | 0.00 | 1022.8 | ||
| 20260507130245 | 0 | 0.0 | 0.0 | 0.00 | 0.00 | 0.00 | 1022.6 | ||
| 20260507125743 | 0 | 0.0 | 0.0 | 0.00 | 0.00 | 0.00 | 1022.9 | ||
| 20260507125241 | 39 | 213 | 3.0 | 3.0 | 0.00 | 0.00 | 0.00 | 83 | 1022.7 |
| 20260507124737 | 39 | 213 | 3.0 | 3.0 | 0.00 | 0.00 | 0.00 | 83 | 1022.9 |
| 20260507124234 | 39 | 227 | 2.0 | 2.0 | 0.00 | 0.00 | 0.00 | 83 | 1022.6 |
| 20260507123733 | 39 | 227 | 2.0 | 2.0 | 0.00 | 0.00 | 0.00 | 83 | 1022.7 |
| 20260507123230 | 39 | 219 | 2.0 | 2.0 | 0.00 | 0.00 | 0.00 | 83 | 1022.7 |
| 20260507122725 | 39 | 219 | 2.0 | 2.0 | 0.00 | 0.00 | 0.00 | 83 | 1022.9 |
| 20260507122221 | 39 | 196 | 4.0 | 6.0 | 0.00 | 0.00 | 0.00 | 82 | 1022.7 |
| 20260507121716 | 0 | 0.0 | 0.0 | 0.00 | 0.00 | 0.00 | 1022.7 | ||
| 20260507121213 | 0 | 0.0 | 0.0 | 0.00 | 0.00 | 0.00 | 1022.6 | ||
| 20260507120709 | 0 | 0.0 | 0.0 | 0.00 | 0.00 | 0.00 | 1022.6 | ||
| 20260507120206 | 0 | 0.0 | 0.0 | 0.00 | 0.00 | 0.00 | 1022.6 | ||
| 20260507115702 | 0 | 0.0 | 0.0 | 0.00 | 0.00 | 0.00 | 1022.8 | ||
| 20260507115158 | 0 | 0.0 | 0.0 | 0.00 | 0.00 | 0.00 | 1022.5 | ||
| 20260507114654 | 0 | 0.0 | 0.0 | 0.00 | 0.00 | 0.00 | 1022.7 | ||
| 20260507114152 | 0 | 0.0 | 0.0 | 0.00 | 0.00 | 0.00 | 1022.7 | ||
| 20260507113649 | 0 | 0.0 | 0.0 | 0.00 | 0.00 | 0.00 | 1022.6 | ||
| 20260507113145 | 0 | 0.0 | 0.0 | 0.00 | 0.00 | 0.00 | 1022.8 | ||
| 20260507112643 | 0 | 0.0 | 0.0 | 0.00 | 0.00 | 0.00 | 1022.7 | ||
| 20260507112140 | 0 | 0.0 | 0.0 | 0.00 | 0.00 | 0.00 | 1022.6 | ||
| 20260507111637 | 0 | 0.0 | 0.0 | 0.00 | 0.00 | 0.00 | 1022.6 | ||
| 20260507111133 | 0 | 0.0 | 0.0 | 0.00 | 0.00 | 0.00 | 1022.7 | ||
| 20260507110630 | 0 | 0.0 | 0.0 | 0.00 | 0.00 | 0.00 | 1022.7 | ||
| 20260507110127 | 0 | 0.0 | 0.0 | 0.00 | 0.00 | 0.00 | 1022.7 | ||
| 20260507105624 | 0 | 0.0 | 0.0 | 0.00 | 0.00 | 0.00 | 1022.4 | ||
| 20260507105119 | 0 | 0.0 | 0.0 | 0.00 | 0.00 | 0.00 | 1022.5 | ||
| 20260507104617 | 0 | 0.0 | 0.0 | 0.00 | 0.00 | 0.00 | 1022.4 | ||
| 20260507104113 | 0 | 0.0 | 0.0 | 0.00 | 0.00 | 0.00 | 1022.4 | ||
| 20260507103609 | 0 | 0.0 | 0.0 | 0.00 | 0.00 | 0.00 | 1022.4 | ||
| 20260507103106 | 0 | 0.0 | 0.0 | 0.00 | 0.00 | 0.00 | 1022.6 | ||
| 20260507102603 | 0 | 0.0 | 0.0 | 0.00 | 0.00 | 0.00 | 1022.4 | ||
| 20260507102059 | 0 | 0.0 | 0.0 | 0.00 | 0.00 | 0.00 | 1022.4 | ||
| 20260507101554 | 0 | 0.0 | 0.0 | 0.00 | 0.00 | 0.00 | 1022.5 | ||
| 20260507101051 | 41 | 163 | 3.0 | 7.0 | 0.00 | 0.02 | 0.02 | 74 | 1022.3 |
| 20260507100548 | 41 | 163 | 3.0 | 7.0 | 0.00 | 0.02 | 0.02 | 74 | 1022.2 |
| 20260507100047 | 41 | 214 | 3.0 | 5.0 | 0.00 | 0.02 | 0.02 | 75 | 1022.2 |
| 20260507095544 | 0 | 0.0 | 0.0 | 0.00 | 0.00 | 0.00 | 1021.9 | ||
| 20260507095041 | 0 | 0.0 | 0.0 | 0.00 | 0.00 | 0.00 | 1022.3 | ||
| 20260507094537 | 0 | 0.0 | 0.0 | 0.00 | 0.00 | 0.00 | 1022.2 | ||
| 20260507094034 | 0 | 0.0 | 0.0 | 0.00 | 0.00 | 0.00 | 1022.2 | ||
| 20260507093531 | 0 | 0.0 | 0.0 | 0.00 | 0.00 | 0.00 | 1022.2 | ||
| 20260507093030 | 0 | 0.0 | 0.0 | 0.00 | 0.00 | 0.00 | 1022.3 | ||
| 20260507092526 | 0 | 0.0 | 0.0 | 0.00 | 0.00 | 0.00 | 1022.3 | ||
| 20260507092023 | 0 | 0.0 | 0.0 | 0.00 | 0.00 | 0.00 | 1022.2 | ||
| 20260507091520 | 0 | 0.0 | 0.0 | 0.00 | 0.00 | 0.00 | 1022.1 | ||
| 20260507091015 | 0 | 0.0 | 0.0 | 0.00 | 0.00 | 0.00 | 1021.9 | ||
| 20260507090511 | 0 | 0.0 | 0.0 | 0.00 | 0.00 | 0.00 | 1021.8 | ||
| 20260507090009 | 0 | 0.0 | 0.0 | 0.00 | 0.00 | 0.00 | 1021.9 | ||
| 20260507085506 | 0 | 0.0 | 0.0 | 0.00 | 0.00 | 0.00 | 1021.8 | ||
| 20260507085002 | 0 | 0.0 | 0.0 | 0.00 | 0.00 | 0.00 | 1021.5 | ||
| 20260507084459 | 0 | 0.0 | 0.0 | 0.00 | 0.00 | 0.00 | 1021.6 | ||
| 20260507083955 | 0 | 0.0 | 0.0 | 0.00 | 0.00 | 0.00 | 1021.4 | ||
| 20260507083452 | 0 | 0.0 | 0.0 | 0.00 | 0.00 | 0.00 | 1021.4 | ||
| 20260507082948 | 0 | 0.0 | 0.0 | 0.00 | 0.00 | 0.00 | 1021.2 | ||
| 20260507082445 | 0 | 0.0 | 0.0 | 0.00 | 0.00 | 0.00 | 1021.3 | ||
| 20260507081942 | 42 | 239 | 5.0 | 7.0 | 0.00 | 0.02 | 0.02 | 72 | 1021.2 |
| 20260507081438 | 42 | 239 | 5.0 | 7.0 | 0.00 | 0.02 | 0.02 | 72 | 1021.2 |
| 20260507080935 | 42 | 239 | 5.0 | 7.0 | 0.00 | 0.02 | 0.02 | 72 | 1021.1 |
| 20260507080431 | 0 | 0.0 | 0.0 | 0.00 | 0.00 | 0.00 | 1020.7 | ||
| 20260507075926 | 0 | 0.0 | 0.0 | 0.00 | 0.00 | 0.00 | 1020.8 | ||
| 20260507075423 | 0 | 0.0 | 0.0 | 0.00 | 0.00 | 0.00 | 1021.0 | ||
| 20260507074920 | 0 | 0.0 | 0.0 | 0.00 | 0.00 | 0.00 | 1020.9 | ||
| 20260507074417 | 0 | 0.0 | 0.0 | 0.00 | 0.00 | 0.00 | 1020.8 | ||
| 20260507073914 | 0 | 0.0 | 0.0 | 0.00 | 0.00 | 0.00 | 1020.7 | ||
| 20260507073410 | 43 | 206 | 2.0 | 2.0 | 0.00 | 0.02 | 0.02 | 69 | 1020.6 |
| 20260507072907 | 43 | 206 | 2.0 | 2.0 | 0.00 | 0.02 | 0.02 | 69 | 1020.5 |
| 20260507072405 | 43 | 206 | 2.0 | 2.0 | 0.00 | 0.02 | 0.02 | 69 | 1020.4 |
| 20260507071902 | 0 | 0.0 | 0.0 | 0.00 | 0.00 | 0.00 | 1020.3 | ||
| 20260507071359 | 0 | 0.0 | 0.0 | 0.00 | 0.00 | 0.00 | 1020.4 | ||
| 20260507070855 | 0 | 0.0 | 0.0 | 0.00 | 0.00 | 0.00 | 1020.3 | ||
| 20260507070353 | 0 | 0.0 | 0.0 | 0.00 | 0.00 | 0.00 | 1020.0 | ||
| 20260507065850 | 45 | 304 | 3.0 | 3.0 | 0.00 | 0.02 | 0.02 | 66 | 1020.2 |
| 20260507065346 | 45 | 304 | 3.0 | 3.0 | 0.00 | 0.02 | 0.02 | 66 | 1020.0 |
| 20260507064843 | 45 | 304 | 3.0 | 3.0 | 0.00 | 0.02 | 0.02 | 66 | 1019.7 |
| 20260507064342 | 0 | 0.0 | 0.0 | 0.00 | 0.00 | 0.00 | 1019.6 | ||
| 20260507063839 | 0 | 0.0 | 0.0 | 0.00 | 0.00 | 0.00 | 1019.8 | ||
| 20260507063336 | 0 | 0.0 | 0.0 | 0.00 | 0.00 | 0.00 | 1019.7 | ||
| 20260507062832 | 0 | 0.0 | 0.0 | 0.00 | 0.00 | 0.00 | 1019.7 | ||
| 20260507062329 | 0 | 0.0 | 0.0 | 0.00 | 0.00 | 0.00 | 1019.4 | ||
| 20260507061828 | 0 | 0.0 | 0.0 | 0.00 | 0.00 | 0.00 | 1019.4 | ||
| 20260507061325 | 0 | 0.0 | 0.0 | 0.00 | 0.00 | 0.00 | 1019.6 | ||
| 20260507060824 | 0 | 0.0 | 0.0 | 0.00 | 0.00 | 0.00 | 1019.6 | ||
| 20260507060320 | 0 | 0.0 | 0.0 | 0.00 | 0.00 | 0.00 | 1019.4 | ||
| 20260507055817 | 0 | 0.0 | 0.0 | 0.00 | 0.00 | 0.00 | 1019.6 | ||
| 20260507055312 | 0 | 0.0 | 0.0 | 0.00 | 0.00 | 0.00 | 1019.5 | ||
| 20260507054808 | 0 | 0.0 | 0.0 | 0.00 | 0.00 | 0.00 | 1019.5 | ||
| 20260507054305 | 0 | 0.0 | 0.0 | 0.00 | 0.00 | 0.00 | 1019.4 | ||
| 20260507053802 | 0 | 0.0 | 0.0 | 0.00 | 0.00 | 0.00 | 1019.6 | ||
| 20260507053300 | 0 | 0.0 | 0.0 | 0.00 | 0.00 | 0.00 | 1019.5 | ||
| 20260507052759 | 0 | 0.0 | 0.0 | 0.00 | 0.00 | 0.00 | 1019.2 | ||
| 20260507052254 | 0 | 0.0 | 0.0 | 0.00 | 0.00 | 0.00 | 1019.2 | ||
| 20260507051753 | 0 | 0.0 | 0.0 | 0.00 | 0.00 | 0.00 | 1019.4 | ||
| 20260507051250 | 0 | 0.0 | 0.0 | 0.00 | 0.00 | 0.00 | 1019.0 | ||
| 20260507050746 | 0 | 0.0 | 0.0 | 0.00 | 0.00 | 0.00 | 1019.0 | ||
| 20260507050243 | 0 | 0.0 | 0.0 | 0.00 | 0.00 | 0.00 | 1019.1 | ||
| 20260507045740 | 49 | 194 | 8.0 | 9.0 | 0.00 | 0.02 | 0.02 | 55 | 1018.7 |
| 20260507045236 | 49 | 194 | 8.0 | 9.0 | 0.00 | 0.02 | 0.02 | 55 | 1018.8 |
| 20260507044733 | 0 | 0.0 | 0.0 | 0.00 | 0.00 | 0.00 | 1019.0 | ||
| 20260507044229 | 0 | 0.0 | 0.0 | 0.00 | 0.00 | 0.00 | 1019.0 | ||
| 20260507043726 | 0 | 0.0 | 0.0 | 0.00 | 0.00 | 0.00 | 1019.0 | ||
| 20260507043223 | 0 | 0.0 | 0.0 | 0.00 | 0.00 | 0.00 | 1018.8 | ||
| 20260507042719 | 0 | 0.0 | 0.0 | 0.00 | 0.00 | 0.00 | 1019.0 | ||
| 20260507042214 | 0 | 0.0 | 0.0 | 0.00 | 0.00 | 0.00 | 1018.9 | ||
| 20260507041712 | 0 | 0.0 | 0.0 | 0.00 | 0.00 | 0.00 | 1018.4 | ||
| 20260507041208 | 0 | 0.0 | 0.0 | 0.00 | 0.00 | 0.00 | 1018.6 | ||
| 20260507040706 | 0 | 0.0 | 0.0 | 0.00 | 0.00 | 0.00 | 1018.2 | ||
| 20260507040201 | 0 | 0.0 | 0.0 | 0.00 | 0.00 | 0.00 | 1018.6 |